Time;durP1;ratioP1;P1;durP2;ratioP2;P2;SDS_P1;SDS_P2;PMS_P1;PMS_P2;Temp;Humidity;BMP_temperature;BMP_pressure;BME280_temperature;BME280_humidity;BME280_pressure;Samples;Min_cycle;Max_cycle;Signal;HPM_P1;HPM_P2
2023/03/14 00:11:06;;;;;;;13.50;6.20;;;;;;;14.07;89.67;98332.46;681875;1262;138844;-82
2023/03/14 00:26:12;;;;;;;14.30;7.20;;;;;;;14.16;88.39;98314.46;682059;1263;138605;-82
2023/03/14 00:41:18;;;;;;;13.50;6.20;;;;;;;14.17;87.00;98292.34;681837;1263;139033;-83
2023/03/14 00:56:22;;;;;;;12.00;6.50;;;;;;;13.98;86.53;98278.48;681932;1265;138671;-83
2023/03/14 01:11:30;;;;;;;13.80;6.70;;;;;;;13.76;85.38;98279.98;682033;1265;138596;-82
2023/03/14 01:26:35;;;;;;;11.30;6.80;;;;;;;13.63;83.67;98270.17;682030;1265;139135;-83
2023/03/14 01:41:40;;;;;;;8.60;6.30;;;;;;;13.46;82.88;98235.59;682188;1265;138872;-82
2023/03/14 01:56:50;;;;;;;12.50;6.80;;;;;;;13.37;82.16;98215.41;682228;1265;138624;-82
2023/03/14 02:11:53;;;;;;;12.50;6.30;;;;;;;13.36;81.07;98211.99;682244;1265;138806;-82
2023/03/14 02:27:20;;;;;;;16.10;7.50;;;;;;;13.29;80.19;98205.63;682255;1262;138520;-82
2023/03/14 02:42:23;;;;;;;10.30;6.00;;;;;;;13.13;79.64;98170.60;682004;1265;138546;-83
2023/03/14 02:57:27;;;;;;;8.70;5.70;;;;;;;13.02;78.84;98163.63;682111;1265;139125;-82
2023/03/14 03:12:31;;;;;;;8.30;5.80;;;;;;;12.96;77.80;98163.71;682203;1264;138502;-82
2023/03/14 03:27:36;;;;;;;14.30;6.30;;;;;;;13.03;76.71;98183.11;682117;1262;138561;-82
2023/03/14 03:42:40;;;;;;;13.60;6.50;;;;;;;12.93;76.56;98198.86;681919;1264;215635;-81
2023/03/14 03:57:44;;;;;;;14.60;6.50;;;;;;;12.66;77.00;98222.02;682035;1266;138848;-82
2023/03/14 04:12:48;;;;;;;11.60;5.80;;;;;;;12.72;76.65;98210.20;682218;1265;139457;-80
2023/03/14 04:27:55;;;;;;;11.90;6.20;;;;;;;12.71;77.09;98182.48;682152;1266;138998;-81
2023/03/14 04:43:01;;;;;;;8.40;5.20;;;;;;;12.71;77.79;98148.98;682148;1264;138767;-81
2023/03/14 04:58:06;;;;;;;8.30;5.10;;;;;;;12.63;79.17;98104.25;682225;1261;138982;-81
2023/03/14 05:13:09;;;;;;;25.60;12.30;;;;;;;12.67;80.63;98106.84;682200;1265;138409;-81
2023/03/14 05:28:48;;;;;;;32.00;19.40;;;;;;;12.52;81.40;98111.48;681713;1266;139025;-80
2023/03/14 05:44:07;;;;;;;21.00;9.10;;;;;;;12.46;81.98;98102.94;682073;1265;138897;-80
2023/03/14 05:59:10;;;;;;;14.20;9.00;;;;;;;12.37;83.34;98107.41;682061;1269;138746;-83
2023/03/14 06:14:20;;;;;;;13.20;9.40;;;;;;;12.30;84.88;98101.98;682218;1261;139116;-81
2023/03/14 06:29:24;;;;;;;18.00;11.10;;;;;;;12.37;84.68;98095.53;682031;1260;139248;-81
2023/03/14 06:44:28;;;;;;;15.50;10.10;;;;;;;12.58;84.54;98102.44;682390;1260;139312;-80
2023/03/14 06:59:31;;;;;;;13.30;8.50;;;;;;;12.81;83.50;98110.13;682304;1263;139247;-81
2023/03/14 07:14:34;;;;;;;13.70;7.20;;;;;;;13.35;80.37;98089.33;682339;1260;140918;-80
2023/03/14 07:29:38;;;;;;;16.50;8.50;;;;;;;13.61;78.10;98101.67;682247;1266;139526;-80
2023/03/14 07:44:41;;;;;;;15.30;6.90;;;;;;;13.97;75.63;98100.95;682311;1260;140467;-81
2023/03/14 07:59:44;;;;;;;9.00;5.70;;;;;;;14.45;72.73;98097.63;682135;1263;139447;-80
2023/03/14 08:14:47;;;;;;;9.90;5.40;;;;;;;14.68;70.48;98092.81;682120;1264;138542;-79
2023/03/14 08:29:51;;;;;;;15.90;6.80;;;;;;;15.06;68.91;98080.88;682238;1260;138829;-80
2023/03/14 08:44:54;;;;;;;11.40;5.70;;;;;;;15.18;68.02;98067.03;682413;1272;139074;-80
2023/03/14 08:59:57;;;;;;;13.50;6.20;;;;;;;15.22;68.40;98057.80;682153;1264;139875;-80
2023/03/14 09:15:01;;;;;;;10.10;6.60;;;;;;;15.35;69.01;98042.02;682307;1263;139686;-81
2023/03/14 09:30:05;;;;;;;10.40;5.80;;;;;;;15.33;69.62;98040.33;682422;1259;138645;-81
2023/03/14 09:45:24;;;;;;;11.10;5.70;;;;;;;15.54;70.13;98027.11;682371;1264;138502;-81
2023/03/14 10:00:28;;;;;;;;;;;;;;;15.59;70.09;98058.33;682167;1264;138714;-81
2023/03/14 10:15:33;;;;;;;15.00;7.20;;;;;;;15.76;70.12;98066.72;682375;1259;125098;-83
2023/03/14 10:30:45;;;;;;;15.80;7.40;;;;;;;15.75;70.84;98059.75;682059;1264;139075;-82
2023/03/14 10:45:57;;;;;;;21.70;9.50;;;;;;;15.77;71.42;98054.91;682309;1263;138995;-83
2023/03/14 11:01:24;;;;;;;21.20;9.10;;;;;;;15.74;71.83;98056.57;682116;1264;139024;-82
2023/03/14 11:17:07;;;;;;;17.50;8.20;;;;;;;15.95;71.55;98039.36;682124;1264;139305;-82
2023/03/14 11:32:33;;;;;;;23.90;11.60;;;;;;;16.28;71.04;98033.91;682319;1264;138805;-81
2023/03/14 11:47:41;;;;;;;14.90;6.80;;;;;;;16.29;71.31;98024.62;682261;1264;139429;-81
2023/03/14 12:02:55;;;;;;;10.00;5.60;;;;;;;16.16;72.24;98033.08;682309;1264;139894;-81
2023/03/14 12:17:58;;;;;;;12.60;8.00;;;;;;;15.96;72.89;98038.92;682174;1262;138750;-82
2023/03/14 12:33:17;;;;;;;14.80;7.40;;;;;;;15.96;73.50;98036.29;682442;1259;139125;-82
2023/03/14 12:48:26;;;;;;;202.90;117.10;;;;;;;16.08;74.34;98032.04;682168;1261;138667;-82
2023/03/14 13:03:58;;;;;;;79.10;37.90;;;;;;;15.93;73.98;98031.48;682454;1259;140241;-83
2023/03/14 13:19:11;;;;;;;13.00;8.20;;;;;;;15.70;73.83;98033.48;682564;1262;139130;-81
2023/03/14 13:34:14;;;;;;;17.50;10.00;;;;;;;15.46;72.63;98034.77;682250;1260;139085;-81
2023/03/14 13:49:23;;;;;;;17.40;9.20;;;;;;;15.41;71.96;98020.62;682397;1263;139284;-84
2023/03/14 14:04:27;;;;;;;;;;;;;;;15.70;70.72;98024.63;682292;1262;138822;-83
2023/03/14 14:19:34;;;;;;;14.00;8.50;;;;;;;18.00;64.84;98025.78;682504;1263;125704;-81
2023/03/14 14:35:03;;;;;;;14.50;7.60;;;;;;;20.90;58.85;98016.46;682441;1259;140455;-82
2023/03/14 14:50:20;;;;;;;;;;;;;;;17.27;63.25;98018.30;682411;1265;138041;-81
2023/03/14 15:05:26;;;;;;;21.20;10.60;;;;;;;16.06;68.59;98007.48;682485;1261;124356;-84
2023/03/14 15:20:30;;;;;;;17.90;9.70;;;;;;;16.20;69.52;98003.27;682491;1263;139032;-83
2023/03/14 15:35:33;;;;;;;20.20;11.50;;;;;;;16.44;69.31;98007.20;682338;1263;139912;-84
2023/03/14 15:50:36;;;;;;;20.30;13.60;;;;;;;16.03;70.80;98005.30;682392;1263;155158;-83
2023/03/14 16:05:40;;;;;;;16.30;9.80;;;;;;;15.64;72.79;98007.81;682456;1263;140751;-83
2023/03/14 16:20:43;;;;;;;31.50;15.80;;;;;;;15.35;74.51;98017.23;682363;1264;139499;-84
2023/03/14 16:36:04;;;;;;;25.40;13.60;;;;;;;15.21;75.25;98016.04;682414;1264;139876;-82
2023/03/14 16:51:08;;;;;;;32.80;16.70;;;;;;;14.98;76.09;98033.60;682346;1263;139328;-82
2023/03/14 17:06:15;;;;;;;60.90;30.60;;;;;;;14.59;78.02;98034.46;682217;1262;139527;-82
2023/03/14 17:21:19;;;;;;;52.70;23.40;;;;;;;14.28;79.41;98048.45;682405;1265;138966;-82
2023/03/14 17:36:27;;;;;;;17.30;10.50;;;;;;;14.13;80.67;98059.74;682512;1260;138792;-81
2023/03/14 17:51:31;;;;;;;17.30;11.30;;;;;;;14.14;81.20;98059.09;682410;1265;138890;-81
2023/03/14 18:06:38;;;;;;;15.10;9.30;;;;;;;14.05;81.98;98070.17;682064;1264;139091;-80
2023/03/14 18:21:43;;;;;;;23.60;12.80;;;;;;;14.11;82.04;98088.02;682328;1264;138805;-83
2023/03/14 18:36:47;;;;;;;17.60;10.20;;;;;;;14.19;82.14;98102.91;682496;1262;138992;-82
2023/03/14 18:51:51;;;;;;;21.20;13.00;;;;;;;14.18;81.79;98116.58;682602;1263;140208;-80
2023/03/14 19:06:55;;;;;;;24.50;13.60;;;;;;;14.21;81.92;98117.83;682360;1265;139504;-81
2023/03/14 19:21:59;;;;;;;19.70;10.10;;;;;;;14.18;81.55;98117.95;682328;1264;138782;-81
2023/03/14 19:37:03;;;;;;;37.20;17.80;;;;;;;14.05;81.84;98116.61;682232;1264;139862;-82
2023/03/14 19:52:07;;;;;;;24.70;14.20;;;;;;;14.00;81.41;98124.34;682490;1263;138936;-82
2023/03/14 20:07:12;;;;;;;19.60;11.30;;;;;;;13.86;81.64;98134.73;682073;1265;139422;-82
2023/03/14 20:22:16;;;;;;;26.40;14.10;;;;;;;13.68;82.14;98155.59;682207;1265;138782;-80
2023/03/14 20:37:23;;;;;;;19.40;12.00;;;;;;;13.60;82.68;98155.17;682308;1265;140120;-82
2023/03/14 20:52:27;;;;;;;17.00;11.70;;;;;;;13.32;86.66;98161.81;682095;1266;139341;-83
2023/03/14 21:07:40;;;;;;;18.80;11.00;;;;;;;13.14;88.07;98153.11;682189;1266;139067;-83
2023/03/14 21:22:44;;;;;;;21.00;12.60;;;;;;;13.05;90.42;98162.63;682654;1263;140085;-82
2023/03/14 21:37:47;;;;;;;17.90;11.10;;;;;;;12.99;91.47;98172.46;682418;1263;138851;-81
2023/03/14 21:52:55;;;;;;;23.30;13.10;;;;;;;12.78;94.48;98182.30;682709;1263;139081;-83
2023/03/14 22:07:59;;;;;;;7.00;3.60;;;;;;;12.04;90.56;98282.16;682360;1266;139099;-83
2023/03/14 22:23:03;;;;;;;7.40;2.90;;;;;;;9.70;84.12;98406.27;682385;1264;137480;-85
2023/03/14 22:38:06;;;;;;;9.30;3.20;;;;;;;8.70;82.44;98510.52;682478;1261;139122;-84
2023/03/14 22:53:10;;;;;;;30.30;8.60;;;;;;;8.25;81.62;98579.77;682819;1260;138247;-82
2023/03/14 23:08:13;;;;;;;5.40;2.90;;;;;;;7.91;81.08;98643.09;682686;1264;139606;-80
2023/03/14 23:23:16;;;;;;;2.70;1.70;;;;;;;7.53;80.94;98692.91;682950;1261;138320;-82
2023/03/14 23:38:21;;;;;;;4.80;2.10;;;;;;;7.24;81.32;98750.35;682787;1264;138438;-82
2023/03/14 23:53:26;;;;;;;4.90;2.30;;;;;;;7.04;81.53;98780.36;682960;1262;138143;-83
